Accueil
METAR-TAF:

METAR-TAF

Aéroports :

Aéroport de Paris-Le Bourget

Paris, France

latitude: 48-58N, longitude: 002-27E, altitude: 66 m

Observation

Le bulletin a été fait il y a 20 minutes, à 03:30 UTC
Vent 4 kt de nord, variant entre nord/nord-ouest et nord/nord-est
Température 12°C
Humidité 76%
Pression 1026 hPa
Visibilité 10 km ou plus
pas de nuages en-dessous de 1500 mètres et pas de cumulonimbus.

METAR: LFPB 120330Z AUTO 36004KT 330V030 CAVOK 12/08 Q1026 NOSIG

Heure: 05:50 (03:50 UTC)

Prévision

Le bulletin a été fait il y a 4 heures et 50 minutes, à 23:00 UTC
Prévision valable du 12 à 00 UTC au 12 à 24 UTC
Vent 8 kt de nord/nord-est
Visibilité 10 km ou plus
pas de nuages en-dessous de 1500 mètres et pas de cumulonimbus.

TAF: LFPB 112300Z 1200/1224 02008KT CAVOK

Observations et prévisions météorologiques de plus de 4000 aéroports (messages METAR et TAF).

Les stations disponibles sont représentées par des disques jaunes et rouges sur la carte.

Passer la souris dessus pour voir le nom de la station.

Cliquer dessus pour voir les observations et prévisions météorologiques.

Pour changer de carte: cliquez sur les boutons verts avec une croix noire pour zoomer, sur le bouton vert avec un tiret pour effectuer un zoom arrière, ou sur les flèches vertes pour les cartes adjacentes.


METAR-TAF: